Time,TemperatureF,DewpointF,PressureIn,WindDirection,WindDirectionDegrees,WindSpeedMPH,WindSpeedGustMPH,Humidity,HourlyPrecipIn,Conditions,Clouds,dailyrainin,SoftwareType,DateUTC
2013-01-29 00:04:00,15.1,8.5,29.47,North,354,1.4,2.9,72,-99.99,,,-99.99,WSDL version 423,2013-01-29 05:04:00,
2013-01-29 00:09:00,15.1,8.5,29.47,NNW,343,2.2,2.9,72,-99.99,,,-99.99,WSDL version 423,2013-01-29 05:09:00,
2013-01-29 00:14:00,15.1,8.8,29.47,North,354,1.6,2.9,73,-99.99,,,-99.99,WSDL version 423,2013-01-29 05:14:00,
2013-01-29 00:19:00,15.1,8.8,29.47,NNW,343,1.5,2.5,73,-99.99,,,-99.99,WSDL version 423,2013-01-29 05:19:00,
2013-01-29 00:24:00,15.1,8.8,29.47,NNE,18,0.0,2.5,73,-99.99,,,-99.99,WSDL version 423,2013-01-29 05:24:00,
2013-01-29 00:29:00,14.9,8.6,29.47,NNW,338,0.0,2.0,73,-99.99,,,-99.99,WSDL version 423,2013-01-29 05:29:00,
2013-01-29 00:34:00,14.9,8.6,29.47,NNE,20,0.0,0.9,73,-99.99,,,-99.99,WSDL version 423,2013-01-29 05:34:00,
2013-01-29 00:39:00,14.8,8.5,29.47,North,352,0.0,1.3,73,-99.99,,,-99.99,WSDL version 423,2013-01-29 05:39:00,
2013-01-29 00:44:00,14.7,8.4,29.47,NNW,338,0.0,1.3,73,-99.99,,,-99.99,WSDL version 423,2013-01-29 05:44:00,
2013-01-29 00:49:00,14.5,8.2,29.47,NNW,340,0.0,0.0,73,-99.99,,,-99.99,WSDL version 423,2013-01-29 05:49:00,
2013-01-29 00:54:00,14.5,8.2,29.47,ENE,65,0.0,0.0,73,-99.99,,,-99.99,WSDL version 423,2013-01-29 05:54:00,
2013-01-29 00:59:00,14.5,8.5,29.47,North,358,0.0,0.0,74,-99.99,,,-99.99,WSDL version 423,2013-01-29 05:59:00,
2013-01-29 01:04:00,14.5,8.5,29.47,ESE,113,0.6,1.6,74,-99.99,,,-99.99,WSDL version 423,2013-01-29 06:04:00,
2013-01-29 01:09:00,14.5,8.4,29.47,ESE,121,0.0,1.6,74,-99.99,,,-99.99,WSDL version 423,2013-01-29 06:09:00,
2013-01-29 01:14:00,14.4,8.6,29.47,ESE,113,0.0,2.2,75,-99.99,,,-99.99,WSDL version 423,2013-01-29 06:14:00,
2013-01-29 01:19:00,14.3,8.4,29.47,NE,34,0.0,2.2,74,-99.99,,,-99.99,WSDL version 423,2013-01-29 06:19:00,
2013-01-29 01:24:00,14.2,8.2,29.44,NNW,335,0.0,0.0,75,-99.99,,,-99.99,WSDL version 423,2013-01-29 06:24:00,
2013-01-29 01:29:00,14.2,8.4,29.44,NNW,340,0.0,0.9,75,-99.99,,,-99.99,WSDL version 423,2013-01-29 06:29:00,
2013-01-29 01:34:00,14.2,8.5,29.44,NNE,25,0.0,0.9,76,-99.99,,,-99.99,WSDL version 423,2013-01-29 06:34:00,
2013-01-29 01:39:00,14.1,8.5,29.44,NE,56,0.0,1.3,76,-99.99,,,-99.99,WSDL version 423,2013-01-29 06:39:00,
2013-01-29 01:44:00,13.9,8.4,29.44,NNW,346,0.0,1.3,76,-99.99,,,-99.99,WSDL version 423,2013-01-29 06:44:00,
2013-01-29 01:49:00,13.7,8.2,29.44,ESE,103,1.3,2.7,76,-99.99,,,-99.99,WSDL version 423,2013-01-29 06:49:00,
2013-01-29 01:54:00,13.6,8.1,29.44,ENE,62,0.0,2.7,76,-99.99,,,-99.99,WSDL version 423,2013-01-29 06:54:00,
2013-01-29 01:59:00,13.6,8.1,29.44,ENE,70,0.0,2.2,76,-99.99,,,-99.99,WSDL version 423,2013-01-29 06:59:00,
2013-01-29 02:04:00,13.3,7.8,29.44,East,80,0.5,2.2,76,-99.99,,,-99.99,WSDL version 423,2013-01-29 07:04:00,
2013-01-29 02:09:00,13.3,7.8,29.47,ESE,104,2.0,3.6,76,-99.99,,,-99.99,WSDL version 423,2013-01-29 07:09:00,
2013-01-29 02:14:00,13.0,7.5,29.47,East,90,0.5,3.6,76,-99.99,,,-99.99,WSDL version 423,2013-01-29 07:14:00,
2013-01-29 02:19:00,12.7,7.2,29.47,East,90,0.5,3.8,76,-99.99,,,-99.99,WSDL version 423,2013-01-29 07:19:00,
2013-01-29 02:24:00,12.6,7.1,29.47,ESE,105,1.5,3.8,76,-99.99,,,-99.99,WSDL version 423,2013-01-29 07:24:00,
2013-01-29 02:29:00,12.2,6.7,29.47,ENE,68,0.0,3.1,76,-99.99,,,-99.99,WSDL version 423,2013-01-29 07:29:00,
2013-01-29 02:34:00,11.9,6.5,29.47,ESE,108,0.5,2.7,76,-99.99,,,-99.99,WSDL version 423,2013-01-29 07:34:00,
2013-01-29 02:39:00,11.8,6.3,29.47,WNW,288,0.0,2.7,76,-99.99,,,-99.99,WSDL version 423,2013-01-29 07:39:00,
2013-01-29 02:44:00,11.5,6.1,29.47,SW,225,0.0,0.0,76,-99.99,,,-99.99,WSDL version 423,2013-01-29 07:44:00,
2013-01-29 02:49:00,11.3,5.9,29.47,SW,225,0.0,0.0,76,-99.99,,,-99.99,WSDL version 423,2013-01-29 07:49:00,
2013-01-29 02:54:00,11.2,5.7,29.50,ESE,104,0.0,0.0,76,-99.99,,,-99.99,WSDL version 423,2013-01-29 07:54:00,
2013-01-29 02:59:00,11.1,5.7,29.50,ESE,105,0.0,0.0,76,-99.99,,,-99.99,WSDL version 423,2013-01-29 07:59:00,
2013-01-29 03:04:00,10.9,5.5,29.50,ENE,62,0.0,0.0,76,-99.99,,,-99.99,WSDL version 423,2013-01-29 08:04:00,
2013-01-29 03:09:00,10.8,5.3,29.50,NNW,338,0.0,0.0,76,-99.99,,,-99.99,WSDL version 423,2013-01-29 08:09:00,
2013-01-29 03:14:00,10.6,5.2,29.50,NNW,338,0.0,0.0,76,-99.99,,,-99.99,WSDL version 423,2013-01-29 08:14:00,
2013-01-29 03:19:00,10.7,5.3,29.50,ENE,58,0.0,0.0,76,-99.99,,,-99.99,WSDL version 423,2013-01-29 08:19:00,
2013-01-29 03:24:00,10.8,5.3,29.50,ENE,68,0.0,0.0,76,-99.99,,,-99.99,WSDL version 423,2013-01-29 08:24:00,
2013-01-29 03:29:00,11.0,5.5,29.50,NE,34,0.0,0.9,76,-99.99,,,-99.99,WSDL version 423,2013-01-29 08:29:00,
2013-01-29 03:34:00,11.1,5.7,29.50,NW,315,0.0,0.9,76,-99.99,,,-99.99,WSDL version 423,2013-01-29 08:34:00,
2013-01-29 03:39:00,11.1,5.7,29.50,NNW,338,0.0,0.0,76,-99.99,,,-99.99,WSDL version 423,2013-01-29 08:39:00,
2013-01-29 03:44:00,11.2,5.8,29.50,NNW,340,0.0,0.9,76,-99.99,,,-99.99,WSDL version 423,2013-01-29 08:44:00,
2013-01-29 03:49:00,11.3,5.9,29.50,NNW,343,0.0,0.9,76,-99.99,,,-99.99,WSDL version 423,2013-01-29 08:49:00,
2013-01-29 03:54:00,11.5,6.0,29.50,NNW,346,0.5,2.0,76,-99.99,,,-99.99,WSDL version 423,2013-01-29 08:54:00,
2013-01-29 03:59:00,11.7,6.2,29.50,NNW,343,1.4,2.2,76,-99.99,,,-99.99,WSDL version 423,2013-01-29 08:59:00,
2013-01-29 04:04:00,11.8,6.3,29.50,NNW,328,0.0,2.5,76,-99.99,,,-99.99,WSDL version 423,2013-01-29 09:04:00,
2013-01-29 04:09:00,11.8,6.4,29.50,NNW,343,0.0,2.5,76,-99.99,,,-99.99,WSDL version 423,2013-01-29 09:09:00,
2013-01-29 04:14:00,11.9,6.5,29.50,NNW,346,0.0,0.0,76,-99.99,,,-99.99,WSDL version 423,2013-01-29 09:14:00,
2013-01-29 04:19:00,-999.0,-99.9,29.50,North,8,0.8,2.0,-999,-99.99,,,-99.99,WSDL version 423,2013-01-29 09:19:00,
2013-01-29 04:24:00,12.5,7.0,29.50,North,354,0.6,2.0,76,-99.99,,,-99.99,WSDL version 423,2013-01-29 09:24:00,
2013-01-29 04:29:00,12.9,7.4,29.50,NNW,343,0.0,2.7,76,-99.99,,,-99.99,WSDL version 423,2013-01-29 09:29:00,
2013-01-29 04:34:00,13.4,7.9,29.50,North,355,0.9,2.9,76,-99.99,,,-99.99,WSDL version 423,2013-01-29 09:34:00,
2013-01-29 04:39:00,13.7,8.2,29.47,North,360,1.8,2.9,76,-99.99,,,-99.99,WSDL version 423,2013-01-29 09:39:00,
2013-01-29 04:44:00,14.1,12.0,29.47,North,354,1.8,2.9,90,-99.99,,,-99.99,WSDL version 423,2013-01-29 09:44:00,
2013-01-29 04:49:00,14.2,12.2,29.47,NNW,341,1.7,3.1,91,-99.99,,,-99.99,WSDL version 423,2013-01-29 09:49:00,
2013-01-29 04:54:00,14.2,12.5,29.47,North,350,1.0,3.1,92,-99.99,,,-99.99,WSDL version 423,2013-01-29 09:54:00,
2013-01-29 04:59:00,14.0,12.4,29.47,North,353,0.0,2.0,92,-99.99,,,-99.99,WSDL version 423,2013-01-29 09:59:00,
2013-01-29 05:04:00,13.9,12.3,29.47,NNW,340,0.0,0.0,92,-99.99,,,-99.99,WSDL version 423,2013-01-29 10:04:00,
2013-01-29 05:09:00,13.7,12.1,29.50,NNE,14,0.0,0.0,92,-99.99,,,-99.99,WSDL version 423,2013-01-29 10:09:00,
2013-01-29 05:14:00,13.5,11.9,29.50,NNW,343,0.0,1.1,92,-99.99,,,-99.99,WSDL version 423,2013-01-29 10:14:00,
2013-01-29 05:19:00,13.2,11.6,29.50,NE,37,0.0,1.1,92,-99.99,,,-99.99,WSDL version 423,2013-01-29 10:19:00,
2013-01-29 05:24:00,12.7,11.0,29.47,ESE,104,0.0,2.7,92,-99.99,,,-99.99,WSDL version 423,2013-01-29 10:24:00,
2013-01-29 05:29:00,12.3,10.6,29.47,East,83,0.0,2.9,92,-99.99,,,-99.99,WSDL version 423,2013-01-29 10:29:00,
2013-01-29 05:34:00,11.9,10.3,29.47,ENE,76,0.0,2.9,92,-99.99,,,-99.99,WSDL version 423,2013-01-29 10:34:00,
2013-01-29 05:39:00,11.6,9.9,29.47,ESE,104,0.8,2.0,92,-99.99,,,-99.99,WSDL version 423,2013-01-29 10:39:00,
2013-01-29 05:44:00,11.3,9.7,29.47,ESE,113,0.3,2.0,92,-99.99,,,-99.99,WSDL version 423,2013-01-29 10:44:00,
2013-01-29 05:49:00,11.0,9.4,29.47,ENE,71,0.0,1.6,92,-99.99,,,-99.99,WSDL version 423,2013-01-29 10:49:00,
2013-01-29 05:54:00,10.5,8.9,29.47,ESE,103,0.0,0.0,92,-99.99,,,-99.99,WSDL version 423,2013-01-29 10:54:00,
2013-01-29 05:59:00,10.2,8.6,29.47,ESE,113,0.4,2.0,92,-99.99,,,-99.99,WSDL version 423,2013-01-29 10:59:00,
2013-01-29 06:04:00,10.0,8.4,29.47,East,98,0.0,2.0,92,-99.99,,,-99.99,WSDL version 423,2013-01-29 11:04:00,
2013-01-29 06:09:00,9.5,7.8,29.47,ESE,103,0.0,0.0,92,-99.99,,,-99.99,WSDL version 423,2013-01-29 11:09:00,
2013-01-29 06:14:00,9.1,7.4,29.47,ENE,70,0.0,0.0,92,-99.99,,,-99.99,WSDL version 423,2013-01-29 11:14:00,
2013-01-29 06:19:00,8.8,7.2,29.47,SE,129,0.0,0.0,92,-99.99,,,-99.99,WSDL version 423,2013-01-29 11:19:00,
2013-01-29 06:24:00,8.4,6.8,29.47,SSE,158,0.0,0.0,92,-99.99,,,-99.99,WSDL version 423,2013-01-29 11:24:00,
2013-01-29 06:29:00,-999.0,-99.9,29.47,SSE,158,0.0,0.0,-999,-99.99,,,-99.99,WSDL version 423,2013-01-29 11:29:00,
2013-01-29 06:34:00,-999.0,-99.9,29.47,East,90,0.0,0.0,-999,-99.99,,,-99.99,WSDL version 423,2013-01-29 11:34:00,
2013-01-29 06:39:00,7.6,6.0,29.50,NNW,332,0.0,0.0,92,-99.99,,,-99.99,WSDL version 423,2013-01-29 11:39:00,
2013-01-29 06:44:00,-999.0,-99.9,29.50,NNW,345,0.0,0.0,-999,-99.99,,,-99.99,WSDL version 423,2013-01-29 11:44:00,
2013-01-29 06:49:00,7.3,5.7,29.50,North,354,0.6,1.6,92,-99.99,,,-99.99,WSDL version 423,2013-01-29 11:49:00,
2013-01-29 06:54:00,-999.0,-99.9,29.50,NNW,346,0.0,2.0,-999,-99.99,,,-99.99,WSDL version 423,2013-01-29 11:54:00,
2013-01-29 06:59:00,7.5,5.9,29.50,North,357,0.0,2.5,92,-99.99,,,-99.99,WSDL version 423,2013-01-29 11:59:00,
2013-01-29 07:04:00,-999.0,-99.9,29.50,NNW,348,0.0,2.5,-999,-99.99,,,-99.99,WSDL version 423,2013-01-29 12:04:00,
2013-01-29 07:09:00,7.5,5.9,29.50,NNW,338,0.0,2.5,92,-99.99,,,-99.99,WSDL version 423,2013-01-29 12:09:00,
2013-01-29 07:14:00,-999.0,-99.9,29.50,North,350,1.3,2.5,-999,-99.99,,,-99.99,WSDL version 423,2013-01-29 12:14:00,
2013-01-29 07:19:00,7.7,6.1,29.50,North,350,1.5,2.7,92,-99.99,,,-99.99,WSDL version 423,2013-01-29 12:19:00,
2013-01-29 07:24:00,7.7,6.1,29.53,North,360,2.1,2.7,92,-99.99,,,-99.99,WSDL version 423,2013-01-29 12:24:00,
2013-01-29 07:34:00,7.7,6.1,29.53,NNW,332,0.4,2.9,92,-99.99,,,-99.99,WSDL version 423,2013-01-29 12:34:00,
2013-01-29 07:39:00,7.6,6.0,29.53,North,358,0.0,2.9,92,-99.99,,,-99.99,WSDL version 423,2013-01-29 12:39:00,
2013-01-29 07:44:00,7.5,5.9,29.53,North,350,0.0,1.6,92,-99.99,,,-99.99,WSDL version 423,2013-01-29 12:44:00,
2013-01-29 07:49:00,7.5,5.9,29.53,North,360,0.0,0.0,92,-99.99,,,-99.99,WSDL version 423,2013-01-29 12:49:00,
2013-01-29 07:54:00,7.5,5.9,29.56,NNW,343,1.8,2.7,92,-99.99,,,-99.99,WSDL version 423,2013-01-29 12:54:00,
2013-01-29 07:59:00,7.7,6.1,29.56,North,358,1.6,2.9,92,-99.99,,,-99.99,WSDL version 423,2013-01-29 12:59:00,
2013-01-29 08:04:00,8.0,6.4,29.56,NNW,338,2.1,2.9,92,-99.99,,,-99.99,WSDL version 423,2013-01-29 13:04:00,
2013-01-29 08:09:00,8.5,6.9,29.56,NNE,23,0.0,2.9,92,-99.99,,,-99.99,WSDL version 423,2013-01-29 13:09:00,
2013-01-29 08:14:00,8.8,7.2,29.56,SW,233,0.0,1.6,92,-99.99,,,-99.99,WSDL version 423,2013-01-29 13:14:00,
2013-01-29 08:19:00,9.1,7.5,29.56,SSW,203,0.0,1.6,92,-99.99,,,-99.99,WSDL version 423,2013-01-29 13:19:00,
2013-01-29 08:24:00,9.5,7.9,29.59,SW,228,0.0,0.0,92,-99.99,,,-99.99,WSDL version 423,2013-01-29 13:24:00,
2013-01-29 08:29:00,10.1,8.5,29.59,SSE,158,0.0,0.0,92,-99.99,,,-99.99,WSDL version 423,2013-01-29 13:29:00,
2013-01-29 08:34:00,10.6,9.0,29.59,SE,135,0.0,0.9,92,-99.99,,,-99.99,WSDL version 423,2013-01-29 13:34:00,
2013-01-29 08:39:00,11.4,9.8,29.59,NNW,338,0.0,0.9,92,-99.99,,,-99.99,WSDL version 423,2013-01-29 13:39:00,
2013-01-29 08:44:00,12.0,10.4,29.59,NNW,338,0.0,0.0,92,-99.99,,,-99.99,WSDL version 423,2013-01-29 13:44:00,
2013-01-29 08:49:00,12.7,11.0,29.59,NNW,340,0.0,0.0,92,-99.99,,,-99.99,WSDL version 423,2013-01-29 13:49:00,
2013-01-29 08:54:00,12.9,11.3,29.59,North,360,2.2,4.0,92,-99.99,,,-99.99,WSDL version 423,2013-01-29 13:54:00,
2013-01-29 08:59:00,13.2,11.5,29.59,North,357,0.6,4.0,92,-99.99,,,-99.99,WSDL version 423,2013-01-29 13:59:00,
2013-01-29 09:04:00,13.9,11.9,29.59,North,353,1.4,2.5,89,-99.99,,,-99.99,WSDL version 423,2013-01-29 14:04:00,
2013-01-29 09:09:00,14.4,11.8,29.59,NNW,344,1.3,2.2,88,-99.99,,,-99.99,WSDL version 423,2013-01-29 14:09:00,
2013-01-29 09:14:00,15.1,12.3,29.59,North,355,1.3,2.2,87,-99.99,,,-99.99,WSDL version 423,2013-01-29 14:14:00,
2013-01-29 09:19:00,16.0,12.9,29.59,North,357,0.0,2.0,86,-99.99,,,-99.99,WSDL version 423,2013-01-29 14:19:00,
2013-01-29 09:24:00,16.7,13.3,29.62,NNW,340,1.3,3.1,83,-99.99,,,-99.99,WSDL version 423,2013-01-29 14:24:00,
2013-01-29 09:29:00,17.0,12.8,29.62,NNW,340,1.6,3.1,80,-99.99,,,-99.99,WSDL version 423,2013-01-29 14:29:00,
2013-01-29 09:34:00,17.6,12.8,29.62,NNW,345,1.7,3.1,78,-99.99,,,-99.99,WSDL version 423,2013-01-29 14:34:00,
2013-01-29 09:39:00,18.0,12.6,29.62,North,349,1.4,3.1,76,-99.99,,,-99.99,WSDL version 423,2013-01-29 14:39:00,
2013-01-29 09:44:00,18.6,13.0,29.62,NNW,340,0.0,3.1,76,-99.99,,,-99.99,WSDL version 423,2013-01-29 14:44:00,
2013-01-29 09:49:00,19.4,13.7,29.62,North,3,0.0,0.0,75,-99.99,,,-99.99,WSDL version 423,2013-01-29 14:49:00,
2013-01-29 09:54:00,19.9,13.7,29.59,North,349,2.3,2.7,72,-99.99,,,-99.99,WSDL version 423,2013-01-29 14:54:00,
2013-01-29 09:59:00,20.0,12.4,29.59,NNW,348,2.1,2.9,68,-99.99,,,-99.99,WSDL version 423,2013-01-29 14:59:00,
2013-01-29 10:04:00,20.3,12.3,29.59,NNW,346,1.8,2.9,67,-99.99,,,-99.99,WSDL version 423,2013-01-29 15:04:00,
2013-01-29 10:09:00,20.8,12.9,29.59,North,350,1.3,2.9,68,-99.99,,,-99.99,WSDL version 423,2013-01-29 15:09:00,
2013-01-29 10:14:00,21.2,13.0,29.59,NNW,340,2.2,2.9,67,-99.99,,,-99.99,WSDL version 423,2013-01-29 15:14:00,
2013-01-29 10:19:00,21.6,13.0,29.59,North,354,1.9,2.9,65,-99.99,,,-99.99,WSDL version 423,2013-01-29 15:19:00,
2013-01-29 10:24:00,22.2,13.6,29.59,NNW,348,0.9,2.7,66,-99.99,,,-99.99,WSDL version 423,2013-01-29 15:24:00,
2013-01-29 10:29:00,22.9,14.5,29.59,NNW,340,0.7,2.7,66,-99.99,,,-99.99,WSDL version 423,2013-01-29 15:29:00,
2013-01-29 10:34:00,23.6,15.0,29.59,NNW,346,0.0,2.5,66,-99.99,,,-99.99,WSDL version 423,2013-01-29 15:34:00,
2013-01-29 10:39:00,24.5,16.0,29.56,North,358,0.0,0.0,66,-99.99,,,-99.99,WSDL version 423,2013-01-29 15:39:00,
2013-01-29 10:44:00,25.3,16.7,29.56,North,8,0.0,0.0,67,-99.99,,,-99.99,WSDL version 423,2013-01-29 15:44:00,
2013-01-29 10:49:00,26.4,18.0,29.56,North,360,0.0,0.0,67,-99.99,,,-99.99,WSDL version 423,2013-01-29 15:49:00,
2013-01-29 10:54:00,27.7,19.4,29.59,North,350,0.0,0.0,68,-99.99,,,-99.99,WSDL version 423,2013-01-29 15:54:00,
2013-01-29 10:59:00,28.6,20.0,29.59,NNW,338,0.0,0.0,66,-99.99,,,-99.99,WSDL version 423,2013-01-29 15:59:00,
2013-01-29 11:04:00,29.0,19.5,29.59,North,3,0.0,0.0,62,-99.99,,,-99.99,WSDL version 423,2013-01-29 16:04:00,
2013-01-29 11:09:00,29.5,18.8,29.56,NNE,23,0.0,0.0,60,-99.99,,,-99.99,WSDL version 423,2013-01-29 16:09:00,
2013-01-29 11:14:00,30.5,19.7,29.56,NNE,18,0.0,0.0,61,-99.99,,,-99.99,WSDL version 423,2013-01-29 16:14:00,
2013-01-29 11:19:00,31.0,19.8,29.56,North,350,2.1,3.6,57,-99.99,,,-99.99,WSDL version 423,2013-01-29 16:19:00,
2013-01-29 11:24:00,30.3,17.7,29.56,North,352,2.2,5.4,55,-99.99,,,-99.99,WSDL version 423,2013-01-29 16:24:00,
2013-01-29 11:29:00,30.3,17.7,29.56,East,85,2.2,5.4,56,-99.99,,,-99.99,WSDL version 423,2013-01-29 16:29:00,
2013-01-29 11:34:00,30.4,18.1,29.56,SSE,166,1.6,4.0,56,-99.99,,,-99.99,WSDL version 423,2013-01-29 16:34:00,
2013-01-29 11:39:00,31.3,19.4,29.56,WSW,240,0.0,3.1,57,-99.99,,,-99.99,WSDL version 423,2013-01-29 16:39:00,
2013-01-29 11:44:00,31.9,19.6,29.56,ENE,70,0.0,0.0,57,-99.99,,,-99.99,WSDL version 423,2013-01-29 16:44:00,
2013-01-29 11:49:00,32.3,18.4,29.56,SSW,200,0.0,0.0,56,-99.99,,,-99.99,WSDL version 423,2013-01-29 16:49:00,
2013-01-29 11:54:00,33.0,19.1,29.56,SW,235,0.0,0.0,56,-99.99,,,-99.99,WSDL version 423,2013-01-29 16:54:00,
2013-01-29 11:59:00,33.4,19.2,29.56,SSW,209,1.0,2.9,56,-99.99,,,-99.99,WSDL version 423,2013-01-29 16:59:00,
2013-01-29 12:04:00,33.4,18.9,29.56,SSW,203,0.0,2.9,55,-99.99,,,-99.99,WSDL version 423,2013-01-29 17:04:00,
2013-01-29 12:09:00,34.2,19.7,29.56,SSW,195,0.0,2.2,55,-99.99,,,-99.99,WSDL version 423,2013-01-29 17:09:00,
2013-01-29 12:14:00,35.0,20.4,29.56,SSW,208,0.0,0.0,55,-99.99,,,-99.99,WSDL version 423,2013-01-29 17:14:00,
2013-01-29 12:19:00,35.6,20.7,29.56,WSW,243,1.4,3.6,55,-99.99,,,-99.99,WSDL version 423,2013-01-29 17:19:00,
2013-01-29 12:24:00,35.7,20.5,29.53,SE,133,1.5,5.8,52,-99.99,,,-99.99,WSDL version 423,2013-01-29 17:24:00,
2013-01-29 12:29:00,34.9,18.4,29.53,SE,127,2.7,5.8,50,-99.99,,,-99.99,WSDL version 423,2013-01-29 17:29:00,
2013-01-29 12:34:00,34.6,18.0,29.53,North,352,2.0,5.8,50,-99.99,,,-99.99,WSDL version 423,2013-01-29 17:34:00,
2013-01-29 12:39:00,33.9,17.2,29.53,North,8,2.0,5.8,50,-99.99,,,-99.99,WSDL version 423,2013-01-29 17:39:00,
2013-01-29 12:44:00,33.6,17.1,29.53,SSE,152,2.6,5.4,51,-99.99,,,-99.99,WSDL version 423,2013-01-29 17:44:00,
2013-01-29 12:49:00,33.7,17.5,29.53,ENE,58,1.8,4.7,51,-99.99,,,-99.99,WSDL version 423,2013-01-29 17:49:00,
2013-01-29 12:54:00,33.8,17.6,29.53,NE,35,1.5,4.3,51,-99.99,,,-99.99,WSDL version 423,2013-01-29 17:54:00,
2013-01-29 12:59:00,33.8,17.4,29.53,South,191,1.9,3.8,50,-99.99,,,-99.99,WSDL version 423,2013-01-29 17:59:00,
2013-01-29 13:04:00,33.8,17.3,29.53,NW,309,2.1,3.8,50,-99.99,,,-99.99,WSDL version 423,2013-01-29 18:04:00,
2013-01-29 13:09:00,33.4,16.9,29.53,NNW,348,2.2,3.6,49,-99.99,,,-99.99,WSDL version 423,2013-01-29 18:09:00,
2013-01-29 13:14:00,32.9,16.0,29.53,NE,45,2.0,4.3,50,-99.99,,,-99.99,WSDL version 423,2013-01-29 18:14:00,
2013-01-29 13:19:00,32.9,16.8,29.53,ENE,77,0.6,4.3,51,-99.99,,,-99.99,WSDL version 423,2013-01-29 18:19:00,
2013-01-29 13:24:00,33.0,16.8,29.53,NE,38,0.9,3.4,51,-99.99,,,-99.99,WSDL version 423,2013-01-29 18:24:00,
2013-01-29 13:29:00,32.7,16.4,29.53,North,353,1.5,3.4,50,-99.99,,,-99.99,WSDL version 423,2013-01-29 18:29:00,
2013-01-29 13:34:00,32.6,16.1,29.53,NNW,343,1.4,4.0,51,-99.99,,,-99.99,WSDL version 423,2013-01-29 18:34:00,
2013-01-29 13:39:00,32.2,16.1,29.50,NNE,15,3.0,6.5,50,-99.99,,,-99.99,WSDL version 423,2013-01-29 18:39:00,
2013-01-29 13:44:00,31.9,17.2,29.50,NNE,23,2.6,6.5,50,-99.99,,,-99.99,WSDL version 423,2013-01-29 18:44:00,
2013-01-29 13:49:00,31.8,16.5,29.50,ENE,78,2.3,5.8,50,-99.99,,,-99.99,WSDL version 423,2013-01-29 18:49:00,
2013-01-29 13:54:00,31.1,16.1,29.50,ENE,62,3.0,5.4,49,-99.99,,,-99.99,WSDL version 423,2013-01-29 18:54:00,
2013-01-29 13:59:00,30.7,15.7,29.50,East,87,3.2,6.3,49,-99.99,,,-99.99,WSDL version 423,2013-01-29 18:59:00,
2013-01-29 14:04:00,30.6,15.9,29.50,NNE,28,2.6,6.3,50,-99.99,,,-99.99,WSDL version 423,2013-01-29 19:04:00,
2013-01-29 14:09:00,30.7,16.1,29.47,ENE,70,2.3,4.7,50,-99.99,,,-99.99,WSDL version 423,2013-01-29 19:09:00,
2013-01-29 14:14:00,30.9,16.3,29.47,North,10,2.5,4.3,50,-99.99,,,-99.99,WSDL version 423,2013-01-29 19:14:00,
2013-01-29 14:19:00,31.6,17.3,29.47,WNW,285,0.4,4.3,51,-99.99,,,-99.99,WSDL version 423,2013-01-29 19:19:00,
2013-01-29 14:24:00,31.4,16.8,29.50,SSE,160,0.5,3.4,51,-99.99,,,-99.99,WSDL version 423,2013-01-29 19:24:00,
2013-01-29 14:29:00,31.7,17.2,29.50,NW,325,1.9,3.6,50,-99.99,,,-99.99,WSDL version 423,2013-01-29 19:29:00,
2013-01-29 14:34:00,32.1,16.7,29.50,North,10,0.5,3.6,51,-99.99,,,-99.99,WSDL version 423,2013-01-29 19:34:00,
2013-01-29 14:39:00,32.1,16.3,29.50,East,93,1.3,2.7,50,-99.99,,,-99.99,WSDL version 423,2013-01-29 19:39:00,
2013-01-29 14:44:00,31.9,17.2,29.50,NNE,29,1.9,4.0,50,-99.99,,,-99.99,WSDL version 423,2013-01-29 19:44:00,
2013-01-29 14:49:00,31.1,15.9,29.50,ENE,63,2.0,4.3,48,-99.99,,,-99.99,WSDL version 423,2013-01-29 19:49:00,
2013-01-29 14:54:00,30.7,15.6,29.50,NW,318,0.5,4.3,49,-99.99,,,-99.99,WSDL version 423,2013-01-29 19:54:00,
2013-01-29 14:59:00,30.2,15.6,29.50,NE,55,1.9,3.8,50,-99.99,,,-99.99,WSDL version 423,2013-01-29 19:59:00,
2013-01-29 15:04:00,29.4,15.1,29.50,East,83,1.7,4.9,51,-99.99,,,-99.99,WSDL version 423,2013-01-29 20:04:00,
2013-01-29 15:09:00,29.0,15.1,29.47,North,10,1.1,4.9,52,-99.99,,,-99.99,WSDL version 423,2013-01-29 20:09:00,
2013-01-29 15:14:00,28.7,15.1,29.47,SSE,153,1.3,4.3,53,-99.99,,,-99.99,WSDL version 423,2013-01-29 20:14:00,
2013-01-29 15:19:00,-999.0,-99.9,29.47,West,261,0.0,3.6,-999,-99.99,,,-99.99,WSDL version 423,2013-01-29 20:19:00,
2013-01-29 15:24:00,28.0,15.1,29.47,SE,128,1.8,4.3,54,-99.99,,,-99.99,WSDL version 423,2013-01-29 20:24:00,
2013-01-29 15:29:00,27.8,15.1,29.47,NNE,13,2.3,4.7,55,-99.99,,,-99.99,WSDL version 423,2013-01-29 20:29:00,
2013-01-29 15:34:00,27.8,15.5,29.47,South,173,0.7,4.7,56,-99.99,,,-99.99,WSDL version 423,2013-01-29 20:34:00,
2013-01-29 15:44:00,27.3,15.9,29.47,North,355,0.7,4.0,58,-99.99,,,-99.99,WSDL version 423,2013-01-29 20:44:00,
2013-01-29 15:49:00,27.0,16.2,29.47,ESE,120,3.2,8.5,61,-99.99,,,-99.99,WSDL version 423,2013-01-29 20:49:00,
2013-01-29 15:54:00,26.6,16.6,29.47,SW,234,1.5,8.5,63,-99.99,,,-99.99,WSDL version 423,2013-01-29 20:54:00,
2013-01-29 15:59:00,26.3,16.8,29.47,NE,35,1.4,3.4,63,-99.99,,,-99.99,WSDL version 423,2013-01-29 20:59:00,
2013-01-29 16:04:00,26.2,16.8,29.47,NW,326,0.0,3.1,64,-99.99,,,-99.99,WSDL version 423,2013-01-29 21:04:00,
2013-01-29 16:09:00,26.1,16.7,29.47,North,358,1.8,3.6,65,-99.99,,,-99.99,WSDL version 423,2013-01-29 21:09:00,
2013-01-29 16:14:00,25.8,17.1,29.47,NNE,13,1.5,3.6,67,-99.99,,,-99.99,WSDL version 423,2013-01-29 21:14:00,
2013-01-29 16:19:00,25.6,17.4,29.47,NNW,345,1.8,3.1,69,-99.99,,,-99.99,WSDL version 423,2013-01-29 21:19:00,
2013-01-29 16:24:00,25.4,17.6,29.47,NNW,340,0.9,3.8,69,-99.99,,,-99.99,WSDL version 423,2013-01-29 21:24:00,
2013-01-29 16:29:00,25.1,17.4,29.47,NNW,348,0.1,3.8,69,-99.99,,,-99.99,WSDL version 423,2013-01-29 21:29:00,
2013-01-29 16:34:00,25.0,17.3,29.47,North,353,0.0,2.5,70,-99.99,,,-99.99,WSDL version 423,2013-01-29 21:34:00,
2013-01-29 16:39:00,24.8,17.5,29.47,NE,48,1.1,3.1,72,-99.99,,,-99.99,WSDL version 423,2013-01-29 21:39:00,
2013-01-29 16:44:00,24.7,17.9,29.47,NNW,343,1.9,3.6,73,-99.99,,,-99.99,WSDL version 423,2013-01-29 21:44:00,
2013-01-29 16:49:00,24.5,18.4,29.47,North,3,1.9,5.4,75,-99.99,,,-99.99,WSDL version 423,2013-01-29 21:49:00,
2013-01-29 16:54:00,24.4,18.6,29.44,NNE,14,0.0,5.4,75,-99.99,,,-99.99,WSDL version 423,2013-01-29 21:54:00,
2013-01-29 16:59:00,24.3,18.3,29.44,North,349,1.2,2.7,75,-99.99,,,-99.99,WSDL version 423,2013-01-29 21:59:00,
2013-01-29 17:04:00,24.3,18.2,29.44,NNE,31,1.8,3.1,75,-99.99,,,-99.99,WSDL version 423,2013-01-29 22:04:00,
2013-01-29 17:09:00,24.2,18.5,29.44,North,350,1.0,4.0,76,-99.99,,,-99.99,WSDL version 423,2013-01-29 22:09:00,
2013-01-29 17:14:00,24.1,18.6,29.44,North,360,1.1,4.0,77,-99.99,,,-99.99,WSDL version 423,2013-01-29 22:14:00,
2013-01-29 17:19:00,-999.0,-99.9,29.44,North,3,1.2,2.5,-999,-99.99,,,-99.99,WSDL version 423,2013-01-29 22:19:00,
2013-01-29 17:24:00,24.1,18.8,29.47,North,357,2.3,4.0,78,-99.99,,,-99.99,WSDL version 423,2013-01-29 22:24:00,
2013-01-29 17:29:00,-999.0,-99.9,29.47,NNW,340,1.3,4.0,-999,-99.99,,,-99.99,WSDL version 423,2013-01-29 22:29:00,
2013-01-29 17:34:00,-999.0,-99.9,29.47,West,267,0.9,3.8,-999,-99.99,,,-99.99,WSDL version 423,2013-01-29 22:34:00,
2013-01-29 17:39:00,-999.0,-99.9,29.44,NNW,343,2.9,4.3,-999,-99.99,,,-99.99,WSDL version 423,2013-01-29 22:39:00,
2013-01-29 17:44:00,23.9,19.2,29.44,North,355,2.9,4.3,80,-99.99,,,-99.99,WSDL version 423,2013-01-29 22:44:00,
2013-01-29 17:49:00,-999.0,-99.9,29.44,NNW,332,1.7,4.3,-999,-99.99,,,-99.99,WSDL version 423,2013-01-29 22:49:00,
2013-01-29 17:54:00,-999.0,-99.9,29.47,NNW,345,1.5,3.1,-999,-99.99,,,-99.99,WSDL version 423,2013-01-29 22:54:00,
2013-01-29 17:59:00,23.9,19.2,29.47,NNW,343,0.7,3.1,80,-99.99,,,-99.99,WSDL version 423,2013-01-29 22:59:00,
2013-01-29 18:04:00,-999.0,-99.9,29.47,NNW,345,0.0,2.7,-999,-99.99,,,-99.99,WSDL version 423,2013-01-29 23:04:00,
2013-01-29 18:09:00,-999.0,-99.9,29.47,NNW,338,0.3,2.7,-999,-99.99,,,-99.99,WSDL version 423,2013-01-29 23:09:00,
2013-01-29 18:14:00,-999.0,-99.9,29.47,NW,325,1.5,4.3,-999,-99.99,,,-99.99,WSDL version 423,2013-01-29 23:14:00,
2013-01-29 18:19:00,-999.0,-99.9,29.47,North,349,0.8,4.3,-999,-99.99,,,-99.99,WSDL version 423,2013-01-29 23:19:00,
2013-01-29 18:24:00,-999.0,-99.9,29.44,NNW,338,1.7,3.8,-999,-99.99,,,-99.99,WSDL version 423,2013-01-29 23:24:00,
2013-01-29 18:29:00,23.9,19.8,29.44,NNW,348,1.0,3.8,82,-99.99,,,-99.99,WSDL version 423,2013-01-29 23:29:00,
2013-01-29 18:34:00,-999.0,-99.9,29.44,North,349,0.0,3.6,-999,-99.99,,,-99.99,WSDL version 423,2013-01-29 23:34:00,
2013-01-29 18:39:00,-999.0,-99.9,29.41,South,190,1.3,4.3,-999,-99.99,,,-99.99,WSDL version 423,2013-01-29 23:39:00,
2013-01-29 18:44:00,-999.0,-99.9,29.41,NNW,329,1.7,4.3,-999,-99.99,,,-99.99,WSDL version 423,2013-01-29 23:44:00,
2013-01-29 18:49:00,-999.0,-99.9,29.41,NNW,345,1.2,3.6,-999,-99.99,,,-99.99,WSDL version 423,2013-01-29 23:49:00,
2013-01-29 18:54:00,-999.0,-99.9,29.41,North,353,2.1,4.0,-999,-99.99,,,-99.99,WSDL version 423,2013-01-29 23:54:00,
2013-01-29 18:59:00,-999.0,-99.9,29.41,North,3,1.8,4.0,-999,-99.99,,,-99.99,WSDL version 423,2013-01-29 23:59:00,
2013-01-29 19:04:00,-999.0,-99.9,29.41,NNW,347,3.2,4.7,-999,-99.99,,,-99.99,WSDL version 423,2013-01-30 00:04:00,
2013-01-29 19:09:00,-999.0,-99.9,29.41,NNW,332,1.8,4.7,-999,-99.99,,,-99.99,WSDL version 423,2013-01-30 00:09:00,
2013-01-29 19:14:00,-999.0,-99.9,29.41,WNW,303,2.5,3.8,-999,-99.99,,,-99.99,WSDL version 423,2013-01-30 00:14:00,
2013-01-29 19:19:00,-999.0,-99.9,29.41,NNW,329,2.3,4.0,-999,-99.99,,,-99.99,WSDL version 423,2013-01-30 00:19:00,
2013-01-29 19:24:00,-999.0,-99.9,29.41,NNW,348,1.9,4.0,-999,-99.99,,,-99.99,WSDL version 423,2013-01-30 00:24:00,
2013-01-29 19:29:00,-999.0,-99.9,29.41,NNW,348,1.0,3.4,-999,-99.99,,,-99.99,WSDL version 423,2013-01-30 00:29:00,
2013-01-29 19:39:00,-999.0,-99.9,29.41,North,360,3.4,5.6,-999,-99.99,,,-99.99,WSDL version 423,2013-01-30 00:39:00,
2013-01-29 19:44:00,-999.0,-99.9,29.41,North,349,2.1,4.3,-999,-99.99,,,-99.99,WSDL version 423,2013-01-30 00:44:00,
2013-01-29 19:49:00,-999.0,-99.9,29.41,NNE,23,2.2,3.4,-999,-99.99,,,-99.99,WSDL version 423,2013-01-30 00:49:00,
2013-01-29 19:54:00,-999.0,-99.9,29.38,NW,321,1.1,2.9,-999,-99.99,,,-99.99,WSDL version 423,2013-01-30 00:54:00,
2013-01-29 19:59:00,-999.0,-99.9,29.38,NNW,338,0.0,2.2,-999,-99.99,,,-99.99,WSDL version 423,2013-01-30 00:59:00,
2013-01-29 20:04:00,-999.0,-99.9,29.38,South,180,0.0,0.0,-999,-99.99,,,-99.99,WSDL version 423,2013-01-30 01:04:00,
2013-01-29 20:09:00,24.3,19.6,29.38,SE,135,0.0,0.0,80,-99.99,,,-99.99,WSDL version 423,2013-01-30 01:09:00,
2013-01-29 20:14:00,24.3,19.6,29.38,WNW,295,0.0,1.3,80,-99.99,,,-99.99,WSDL version 423,2013-01-30 01:14:00,
2013-01-29 20:19:00,24.3,19.6,29.38,West,270,0.0,1.3,80,-99.99,,,-99.99,WSDL version 423,2013-01-30 01:19:00,
2013-01-29 20:24:00,24.3,19.6,29.38,NNE,13,0.0,0.0,80,-99.99,,,-99.99,WSDL version 423,2013-01-30 01:24:00,
2013-01-29 20:29:00,24.3,19.6,29.38,North,360,0.0,0.0,80,-99.99,,,-99.99,WSDL version 423,2013-01-30 01:29:00,
2013-01-29 20:34:00,24.3,19.6,29.38,WNW,298,0.0,0.0,80,-99.99,,,-99.99,WSDL version 423,2013-01-30 01:34:00,
2013-01-29 20:39:00,24.3,19.6,29.38,ENE,70,0.0,0.0,80,-99.99,,,-99.99,WSDL version 423,2013-01-30 01:39:00,
2013-01-29 20:44:00,24.3,19.6,29.38,North,6,0.6,1.6,80,-99.99,,,-99.99,WSDL version 423,2013-01-30 01:44:00,
2013-01-29 20:49:00,24.3,19.6,29.38,North,349,0.8,2.7,80,-99.99,,,-99.99,WSDL version 423,2013-01-30 01:49:00,
2013-01-29 20:54:00,24.4,19.7,29.38,North,349,0.8,2.7,79,-99.99,,,-99.99,WSDL version 423,2013-01-30 01:54:00,
2013-01-29 20:59:00,24.4,19.6,29.38,NNW,329,2.3,3.6,80,-99.99,,,-99.99,WSDL version 423,2013-01-30 01:59:00,
2013-01-29 21:04:00,24.5,19.7,29.38,NNE,14,2.4,4.3,80,-99.99,,,-99.99,WSDL version 423,2013-01-30 02:04:00,
2013-01-29 21:09:00,24.6,19.9,29.35,NNW,335,1.3,4.3,80,-99.99,,,-99.99,WSDL version 423,2013-01-30 02:09:00,
2013-01-29 21:14:00,24.5,20.0,29.35,North,3,2.5,3.6,81,-99.99,,,-99.99,WSDL version 423,2013-01-30 02:14:00,
2013-01-29 21:19:00,24.4,20.0,29.35,North,352,2.3,3.6,81,-99.99,,,-99.99,WSDL version 423,2013-01-30 02:19:00,
2013-01-29 21:24:00,24.4,20.3,29.35,North,350,2.0,3.4,82,-99.99,,,-99.99,WSDL version 423,2013-01-30 02:24:00,
2013-01-29 21:29:00,24.3,20.5,29.35,NNW,346,0.4,3.1,83,-99.99,,,-99.99,WSDL version 423,2013-01-30 02:29:00,
2013-01-29 21:34:00,24.3,20.9,29.35,North,10,0.8,3.1,87,-99.99,,,-99.99,WSDL version 423,2013-01-30 02:34:00,
2013-01-29 21:39:00,24.1,21.3,29.35,North,352,2.2,3.1,88,-99.99,,,-99.99,WSDL version 423,2013-01-30 02:39:00,
2013-01-29 21:44:00,24.1,21.6,29.35,North,360,2.5,4.0,90,-99.99,,,-99.99,WSDL version 423,2013-01-30 02:44:00,
2013-01-29 21:49:00,24.1,21.9,29.35,North,350,1.9,4.0,91,-99.99,,,-99.99,WSDL version 423,2013-01-30 02:49:00,
2013-01-29 21:54:00,24.1,22.1,29.35,North,349,2.6,3.6,91,-99.99,,,-99.99,WSDL version 423,2013-01-30 02:54:00,
2013-01-29 21:59:00,24.4,22.6,29.35,NNW,347,2.7,3.4,92,-99.99,,,-99.99,WSDL version 423,2013-01-30 02:59:00,
2013-01-29 22:04:00,24.6,23.3,29.35,North,349,3.1,3.6,96,-99.99,,,-99.99,WSDL version 423,2013-01-30 03:04:00,
2013-01-29 22:09:00,25.0,24.4,29.32,NNW,343,2.3,3.8,98,-99.99,,,-99.99,WSDL version 423,2013-01-30 03:09:00,
2013-01-29 22:14:00,25.2,25.0,29.32,NNW,340,2.1,3.8,100,-99.99,,,-99.99,WSDL version 423,2013-01-30 03:14:00,
2013-01-29 22:19:00,25.3,25.3,29.32,NNW,340,0.7,3.8,100,-99.99,,,-99.99,WSDL version 423,2013-01-30 03:19:00,
2013-01-29 22:24:00,25.3,25.3,29.32,NNW,345,0.9,3.6,100,-99.99,,,-99.99,WSDL version 423,2013-01-30 03:24:00,
2013-01-29 22:29:00,25.3,25.3,29.32,NNW,343,2.7,4.3,100,-99.99,,,-99.99,WSDL version 423,2013-01-30 03:29:00,
2013-01-29 22:34:00,25.2,25.2,29.32,NNW,335,2.5,4.3,100,-99.99,,,-99.99,WSDL version 423,2013-01-30 03:34:00,
2013-01-29 22:39:00,25.0,25.0,29.29,NNW,334,2.2,4.0,100,-99.99,,,-99.99,WSDL version 423,2013-01-30 03:39:00,
2013-01-29 22:44:00,25.0,25.0,29.29,NNE,30,0.0,2.9,100,-99.99,,,-99.99,WSDL version 423,2013-01-30 03:44:00,
2013-01-29 22:49:00,25.0,25.0,29.29,NNW,346,1.1,2.9,100,-99.99,,,-99.99,WSDL version 423,2013-01-30 03:49:00,
2013-01-29 22:54:00,25.0,25.0,29.29,North,349,0.7,2.9,100,-99.99,,,-99.99,WSDL version 423,2013-01-30 03:54:00,
2013-01-29 22:59:00,25.0,25.0,29.29,NNW,348,0.0,2.5,100,-99.99,,,-99.99,WSDL version 423,2013-01-30 03:59:00,
2013-01-29 23:04:00,25.0,25.0,29.29,NNW,328,0.0,0.0,100,-99.99,,,-99.99,WSDL version 423,2013-01-30 04:04:00,
2013-01-29 23:09:00,25.0,25.0,29.32,NNW,345,0.1,2.2,100,-99.99,,,-99.99,WSDL version 423,2013-01-30 04:09:00,
2013-01-29 23:14:00,25.0,25.0,29.32,NNW,343,0.0,2.5,100,-99.99,,,-99.99,WSDL version 423,2013-01-30 04:14:00,
2013-01-29 23:19:00,25.0,25.0,29.32,NNW,343,0.9,3.4,100,-99.99,,,-99.99,WSDL version 423,2013-01-30 04:19:00,
2013-01-29 23:24:00,25.2,25.2,29.29,NNW,346,2.0,3.6,100,-99.99,,,-99.99,WSDL version 423,2013-01-30 04:24:00,
2013-01-29 23:29:00,25.3,25.3,29.29,NNW,343,0.0,3.6,100,-99.99,,,-99.99,WSDL version 423,2013-01-30 04:29:00,
2013-01-29 23:34:00,25.3,25.3,29.29,NNW,332,0.0,2.9,100,-99.99,,,-99.99,WSDL version 423,2013-01-30 04:34:00,
2013-01-29 23:39:00,25.3,25.3,29.29,NNW,335,1.5,2.7,100,-99.99,,,-99.99,WSDL version 423,2013-01-30 04:39:00,
2013-01-29 23:44:00,25.3,25.3,29.29,North,350,0.0,2.7,100,-99.99,,,-99.99,WSDL version 423,2013-01-30 04:44:00,
2013-01-29 23:49:00,25.3,25.3,29.29,NNW,338,0.0,2.2,100,-99.99,,,-99.99,WSDL version 423,2013-01-30 04:49:00,
2013-01-29 23:54:00,25.3,25.3,29.29,NNW,343,0.9,2.7,100,-99.99,,,-99.99,WSDL version 423,2013-01-30 04:54:00,
2013-01-29 23:59:00,25.3,25.3,29.29,North,350,0.4,2.7,100,-99.99,,,-99.99,WSDL version 423,2013-01-30 04:59:00,